createdAt,value
2023-03-13T00:00:29.769Z,3.40
2023-03-13T00:03:30.771Z,6.60
2023-03-13T00:06:45.779Z,4.20
2023-03-13T00:09:45.778Z,5.60
2023-03-13T00:12:47.777Z,2.30
2023-03-13T00:15:55.788Z,4.00
2023-03-13T00:19:04.789Z,5.70
2023-03-13T00:22:06.132Z,2.80
2023-03-13T00:25:07.795Z,3.80
2023-03-13T00:28:09.766Z,1.50
2023-03-13T00:31:43.974Z,2.60
2023-03-13T00:34:50.856Z,5.40
2023-03-13T00:37:51.809Z,2.10
2023-03-13T00:40:51.805Z,4.10
2023-03-13T00:43:54.900Z,2.80
2023-03-13T00:46:57.814Z,1.80
2023-03-13T00:49:57.860Z,2.30
2023-03-13T00:52:58.823Z,3.10
2023-03-13T00:56:09.854Z,1.70
2023-03-13T00:59:09.816Z,2.70
2023-03-13T01:02:10.924Z,2.10
2023-03-13T01:05:10.840Z,3.10
2023-03-13T01:08:13.924Z,5.00
2023-03-13T01:11:17.884Z,1.50
2023-03-13T01:14:20.911Z,2.90
2023-03-13T01:17:23.940Z,4.80
2023-03-13T01:20:25.885Z,3.30
2023-03-13T01:23:25.911Z,2.80
2023-03-13T01:26:34.045Z,3.90
2023-03-13T01:29:36.891Z,3.50
2023-03-13T01:32:37.036Z,2.70
2023-03-13T01:35:37.932Z,3.50
2023-03-13T01:38:40.949Z,5.90
2023-03-13T01:41:49.964Z,4.70
2023-03-13T01:45:07.049Z,3.40
2023-03-13T01:48:07.975Z,4.20
2023-03-13T01:51:20.914Z,5.80
2023-03-13T01:54:40.988Z,3.40
2023-03-13T01:57:45.071Z,5.40
2023-03-13T02:00:49.186Z,3.90
2023-03-13T02:03:55.966Z,6.10
2023-03-13T02:06:57.972Z,3.00
2023-03-13T02:09:59.937Z,5.30
2023-03-13T02:13:00.976Z,4.10
2023-03-13T02:19:03.966Z,3.90
2023-03-13T02:22:16.068Z,3.60
2023-03-13T02:25:40.017Z,5.60
2023-03-13T02:28:50.057Z,3.60
2023-03-13T02:31:52.005Z,5.20
2023-03-13T02:34:52.094Z,6.20
2023-03-13T02:37:54.985Z,5.60
2023-03-13T02:40:58.987Z,5.70
2023-03-13T02:43:59.020Z,3.60
2023-03-13T02:47:02.085Z,4.30
2023-03-13T02:50:03.029Z,3.30
2023-03-13T02:53:07.070Z,6.00
2023-03-13T02:56:07.031Z,3.50
2023-03-13T02:59:07.086Z,3.50
2023-03-13T03:02:09.051Z,5.20
2023-03-13T03:05:09.104Z,3.40
2023-03-13T03:08:10.063Z,4.80
2023-03-13T03:11:11.174Z,5.40
2023-03-13T03:14:13.133Z,4.20
2023-03-13T03:17:13.192Z,3.60
2023-03-13T03:20:19.060Z,4.70
2023-03-13T03:23:20.099Z,3.40
2023-03-13T03:26:22.115Z,3.40
2023-03-13T03:29:22.156Z,2.90
2023-03-13T03:32:23.236Z,2.10
2023-03-13T03:35:23.132Z,6.50
2023-03-13T03:38:23.146Z,4.40
2023-03-13T03:41:25.118Z,3.30
2023-03-13T03:44:25.127Z,4.30
2023-03-13T03:47:26.237Z,6.20
2023-03-13T03:50:27.473Z,4.70
2023-03-13T03:53:35.423Z,3.90
2023-03-13T03:56:35.139Z,4.10
2023-03-13T03:59:36.129Z,6.80
2023-03-13T04:02:38.211Z,7.90
2023-03-13T04:05:44.155Z,7.70
2023-03-13T04:08:45.162Z,6.00
2023-03-13T04:11:54.211Z,4.00
2023-03-13T04:14:54.169Z,4.10
2023-03-13T04:17:55.180Z,5.40
2023-03-13T04:20:56.214Z,4.60
2023-03-13T04:23:57.184Z,3.30
2023-03-13T04:26:58.164Z,4.10
2023-03-13T04:29:58.318Z,3.60
2023-03-13T04:33:24.195Z,7.10
2023-03-13T04:36:41.173Z,7.00
2023-03-13T04:40:00.193Z,7.50
2023-03-13T04:43:20.345Z,6.40
2023-03-13T04:46:40.383Z,7.80
2023-03-13T04:50:12.186Z,7.20
2023-03-13T04:53:29.213Z,10.50
2023-03-13T04:56:43.719Z,7.60
2023-03-13T05:00:18.610Z,12.80
2023-03-13T05:03:38.306Z,9.60
2023-03-13T05:06:45.272Z,10.00
2023-03-13T05:10:18.260Z,10.00
2023-03-13T05:13:34.187Z,6.70
2023-03-13T05:16:58.279Z,7.80
2023-03-13T05:20:22.215Z,5.40
2023-03-13T05:23:59.247Z,6.60
2023-03-13T05:27:13.200Z,7.50
2023-03-13T05:30:24.291Z,5.30
2023-03-13T05:33:32.293Z,8.60
2023-03-13T05:36:52.456Z,5.00
2023-03-13T05:40:04.938Z,4.50
2023-03-13T05:43:34.481Z,8.20
2023-03-13T05:46:45.710Z,5.00
2023-03-13T05:50:07.292Z,4.30
2023-03-13T05:53:30.880Z,7.50
2023-03-13T05:56:47.367Z,7.60
2023-03-13T06:00:02.352Z,6.90
2023-03-13T06:03:23.367Z,6.50
2023-03-13T06:06:23.397Z,6.80
2023-03-13T06:09:23.408Z,6.80
2023-03-13T06:12:25.587Z,7.20
2023-03-13T06:15:28.409Z,7.80
2023-03-13T06:18:40.545Z,9.00
2023-03-13T06:21:40.355Z,10.60
2023-03-13T06:24:44.330Z,12.50
2023-03-13T06:30:44.352Z,14.20
2023-03-13T06:36:52.396Z,10.70
2023-03-13T06:39:53.414Z,11.10
2023-03-13T06:42:57.367Z,12.40
2023-03-13T06:45:59.350Z,12.60
2023-03-13T06:49:03.463Z,10.60
2023-03-13T06:52:12.415Z,10.80
2023-03-13T06:55:12.424Z,7.20
2023-03-13T06:58:31.659Z,7.70
2023-03-13T07:01:32.685Z,7.50
2023-03-13T07:04:38.574Z,7.70
2023-03-13T07:07:39.425Z,8.20
2023-03-13T07:10:40.514Z,7.80
2023-03-13T07:13:41.548Z,8.40
2023-03-13T07:16:46.637Z,5.60
2023-03-13T07:19:54.660Z,8.20
2023-03-13T07:23:07.542Z,5.30
2023-03-13T07:26:13.556Z,9.10
2023-03-13T07:29:15.451Z,6.20
2023-03-13T07:32:17.628Z,4.90
2023-03-13T07:35:19.462Z,6.30
2023-03-13T07:38:19.817Z,4.80
2023-03-13T07:41:21.004Z,5.50
2023-03-13T07:44:23.427Z,7.30
2023-03-13T07:47:23.492Z,8.60
2023-03-13T07:50:25.621Z,7.10
2023-03-13T07:56:33.508Z,6.70
2023-03-13T07:59:35.591Z,6.50
2023-03-13T08:02:38.701Z,6.90
2023-03-13T08:05:41.765Z,10.20
2023-03-13T08:08:49.161Z,7.20
2023-03-13T08:11:54.576Z,5.70
2023-03-13T08:15:10.997Z,6.40
2023-03-13T08:18:12.641Z,6.20
2023-03-13T08:21:18.539Z,9.20
2023-03-13T08:24:23.577Z,7.50
2023-03-13T08:27:27.547Z,9.50
2023-03-13T08:30:35.127Z,6.20
2023-03-13T08:33:38.661Z,6.30
2023-03-13T08:36:54.565Z,6.90
2023-03-13T08:40:05.852Z,7.90
2023-03-13T08:43:06.552Z,7.80
2023-03-13T08:46:08.865Z,7.50
2023-03-13T08:49:11.950Z,8.60
2023-03-13T08:52:14.420Z,6.80
2023-03-13T08:55:16.601Z,4.70
2023-03-13T08:58:21.597Z,6.70
2023-03-13T09:01:26.659Z,6.90
2023-03-13T09:04:26.768Z,7.00
2023-03-13T09:07:33.130Z,6.20
2023-03-13T09:10:35.657Z,8.50
2023-03-13T09:13:38.716Z,6.40
2023-03-13T09:16:42.663Z,6.40
2023-03-13T09:19:57.821Z,5.10
2023-03-13T09:22:59.661Z,6.20
2023-03-13T09:26:09.849Z,10.10
2023-03-13T09:29:11.878Z,10.00
2023-03-13T09:32:19.803Z,6.40
2023-03-13T09:35:23.118Z,9.10
2023-03-13T09:41:42.727Z,7.10
2023-03-13T09:44:54.152Z,7.40
2023-03-13T09:47:57.712Z,7.50
2023-03-13T09:51:10.489Z,6.10
2023-03-13T09:54:22.352Z,8.60
2023-03-13T09:57:53.739Z,8.80
2023-03-13T10:01:05.690Z,8.60
2023-03-13T10:04:28.872Z,6.00
2023-03-13T10:07:28.916Z,7.00
2023-03-13T10:10:46.754Z,7.30
2023-03-13T10:14:03.713Z,8.00
2023-03-13T10:17:17.741Z,6.80
2023-03-13T10:20:47.960Z,6.30
2023-03-13T10:23:56.792Z,9.10
2023-03-13T10:26:58.946Z,5.30
2023-03-13T10:29:59.788Z,6.70
2023-03-13T10:33:00.838Z,8.50
2023-03-13T10:36:00.852Z,7.70
2023-03-13T10:39:02.849Z,6.00
2023-03-13T10:42:02.753Z,5.40
2023-03-13T10:45:02.817Z,5.70
2023-03-13T10:48:10.812Z,7.80
2023-03-13T10:51:13.766Z,5.50
2023-03-13T10:54:13.802Z,5.60
2023-03-13T10:57:50.906Z,6.00
2023-03-13T11:00:52.243Z,10.00
2023-03-13T11:03:53.905Z,6.10
2023-03-13T11:06:54.160Z,5.90
2023-03-13T11:09:56.139Z,6.80
2023-03-13T11:13:02.876Z,6.10
2023-03-13T11:16:06.890Z,7.80
2023-03-13T11:19:34.071Z,8.00
2023-03-13T11:23:11.912Z,5.40
2023-03-13T11:26:17.900Z,9.40
2023-03-13T11:29:38.873Z,15.30
2023-03-13T11:33:09.384Z,12.90
2023-03-13T11:36:10.249Z,8.90
2023-03-13T11:39:36.917Z,7.90
2023-03-13T11:43:25.009Z,5.80
2023-03-13T11:46:33.085Z,5.90
2023-03-13T11:49:34.910Z,6.00
2023-03-13T11:52:42.013Z,6.40
2023-03-13T11:56:02.446Z,6.80
2023-03-13T11:59:14.975Z,5.80
2023-03-13T12:02:49.967Z,9.50
2023-03-13T12:05:58.000Z,7.40
2023-03-13T12:08:59.918Z,5.80
2023-03-13T12:12:08.995Z,6.20
2023-03-13T12:15:26.923Z,9.10
2023-03-13T12:18:44.966Z,7.00
2023-03-13T12:22:01.019Z,7.50
2023-03-13T12:25:09.972Z,6.00
2023-03-13T12:28:16.393Z,8.20
2023-03-13T12:31:25.023Z,5.50
2023-03-13T12:35:03.020Z,9.00
2023-03-13T12:38:34.772Z,6.90
2023-03-13T12:41:58.131Z,6.30
2023-03-13T12:45:13.277Z,7.80
2023-03-13T12:48:28.111Z,6.90
2023-03-13T12:52:14.339Z,9.50
2023-03-13T12:55:38.287Z,12.10
2023-03-13T12:59:04.530Z,7.70
2023-03-13T13:05:35.678Z,5.40
2023-03-13T13:08:38.246Z,5.00
2023-03-13T13:11:51.511Z,8.60
2023-03-13T13:15:11.522Z,6.50
2023-03-13T13:18:39.792Z,4.40
2023-03-13T13:21:53.472Z,5.80
2023-03-13T13:25:14.438Z,8.90
2023-03-13T13:28:51.697Z,7.90
2023-03-13T13:32:18.228Z,5.70
2023-03-13T13:35:27.937Z,4.60
2023-03-13T13:38:32.565Z,5.70
2023-03-13T13:45:27.157Z,5.50
2023-03-13T13:48:51.905Z,5.00
2023-03-13T13:52:18.307Z,7.30
2023-03-13T13:55:47.684Z,6.00
2023-03-13T14:02:31.131Z,4.50
2023-03-13T14:05:47.798Z,5.60
2023-03-13T14:08:53.251Z,7.20
2023-03-13T14:11:59.431Z,6.40
2023-03-13T14:15:55.457Z,6.20
2023-03-13T14:18:57.258Z,6.80
2023-03-13T14:22:04.920Z,7.30
2023-03-13T14:25:13.449Z,4.20
2023-03-13T14:28:31.924Z,5.60
2023-03-13T14:31:48.522Z,7.40
2023-03-13T14:34:59.501Z,6.70
2023-03-13T14:38:17.757Z,5.10
2023-03-13T14:41:21.291Z,5.30
2023-03-13T14:48:00.058Z,6.40
2023-03-13T14:51:15.117Z,7.00
2023-03-13T14:54:18.172Z,4.70
2023-03-13T14:57:29.240Z,13.30
2023-03-13T15:01:06.748Z,7.60
2023-03-13T15:04:10.493Z,6.70
2023-03-13T15:07:25.575Z,8.80
2023-03-13T15:10:49.467Z,6.00
2023-03-13T15:14:09.701Z,6.30
2023-03-13T15:17:53.142Z,8.70
2023-03-13T15:21:09.266Z,7.90
2023-03-13T15:24:14.770Z,8.50
2023-03-13T15:27:34.740Z,8.20
2023-03-13T15:30:40.791Z,8.50
2023-03-13T15:33:45.570Z,7.70
2023-03-13T15:37:02.528Z,7.20
2023-03-13T15:40:28.670Z,6.80
2023-03-13T15:43:40.572Z,5.00
2023-03-13T15:46:58.922Z,8.00
2023-03-13T15:53:11.778Z,7.40
2023-03-13T15:56:40.000Z,6.00
2023-03-13T15:59:54.889Z,5.40
2023-03-13T16:03:09.088Z,7.60
2023-03-13T16:06:11.760Z,7.20
2023-03-13T16:09:14.409Z,7.50
2023-03-13T16:12:15.303Z,9.60
2023-03-13T16:15:20.346Z,6.60
2023-03-13T16:18:37.634Z,6.90
2023-03-13T16:21:46.348Z,8.20
2023-03-13T16:24:47.445Z,9.10
2023-03-13T16:27:48.503Z,7.90
2023-03-13T16:30:53.757Z,9.00
2023-03-13T16:33:55.427Z,9.30
2023-03-13T16:36:55.505Z,7.20
2023-03-13T16:39:59.724Z,6.50
2023-03-13T16:42:59.676Z,6.60
2023-03-13T16:46:04.827Z,6.40
2023-03-13T16:52:12.426Z,7.00
2023-03-13T16:55:12.414Z,8.40
2023-03-13T16:58:13.500Z,7.60
2023-03-13T17:01:21.545Z,5.70
2023-03-13T17:04:23.485Z,7.00
2023-03-13T17:07:36.492Z,6.20
2023-03-13T17:10:55.724Z,6.40
2023-03-13T17:14:03.470Z,6.70
2023-03-13T17:17:12.143Z,6.30
2023-03-13T17:20:28.797Z,6.70
2023-03-13T17:23:37.522Z,5.50
2023-03-13T17:26:51.195Z,6.30
2023-03-13T17:29:56.386Z,7.30
2023-03-13T17:32:59.214Z,6.90
2023-03-13T17:36:00.794Z,9.60
2023-03-13T17:42:06.525Z,7.70
2023-03-13T17:45:08.505Z,6.00
2023-03-13T17:48:09.609Z,8.90
2023-03-13T17:51:10.521Z,6.30
2023-03-13T17:54:13.704Z,8.30
2023-03-13T17:57:15.931Z,6.90
2023-03-13T18:00:41.566Z,8.40
2023-03-13T18:03:43.746Z,7.00
2023-03-13T18:06:48.165Z,6.40
2023-03-13T18:09:53.765Z,7.20
2023-03-13T18:13:01.899Z,8.50
2023-03-13T18:16:01.695Z,6.80
2023-03-13T18:19:11.644Z,6.90
2023-03-13T18:22:11.740Z,5.20
2023-03-13T18:25:18.194Z,6.90
2023-03-13T18:28:23.555Z,8.60
2023-03-13T18:31:27.305Z,5.90
2023-03-13T18:34:29.456Z,7.50
2023-03-13T18:37:43.412Z,6.20
2023-03-13T18:40:47.645Z,7.50
2023-03-13T18:43:50.193Z,8.50
2023-03-13T18:46:55.485Z,8.10
2023-03-13T18:50:01.942Z,6.70
2023-03-13T18:53:05.965Z,6.60
2023-03-13T18:56:05.674Z,7.30
2023-03-13T18:59:07.620Z,7.90
2023-03-13T19:02:07.697Z,6.40
2023-03-13T19:05:12.157Z,9.20
2023-03-13T19:08:14.199Z,7.00
2023-03-13T19:11:20.275Z,8.80
2023-03-13T19:14:31.961Z,10.60
2023-03-13T19:17:50.883Z,10.60
2023-03-13T19:20:56.926Z,9.10
2023-03-13T19:24:03.762Z,10.10
2023-03-13T19:27:11.986Z,11.30
2023-03-13T19:30:15.873Z,10.70
2023-03-13T19:33:17.708Z,9.10
2023-03-13T19:36:23.739Z,8.80
2023-03-13T19:39:31.782Z,9.70
2023-03-13T19:42:33.696Z,9.10
2023-03-13T19:45:34.234Z,7.90
2023-03-13T19:48:38.950Z,8.70
2023-03-13T19:51:43.824Z,7.90
2023-03-13T19:54:44.739Z,9.40
2023-03-13T19:57:47.744Z,7.80
2023-03-13T20:03:49.709Z,7.10
2023-03-13T20:06:52.792Z,9.00
2023-03-13T20:09:53.720Z,7.60
2023-03-13T20:12:53.841Z,12.90
2023-03-13T20:15:55.072Z,7.80
2023-03-13T20:18:57.759Z,9.50
2023-03-13T20:21:58.764Z,9.20
2023-03-13T20:25:01.896Z,8.20
2023-03-13T20:28:09.771Z,8.40
2023-03-13T20:31:10.058Z,9.80
2023-03-13T20:34:09.873Z,8.40
2023-03-13T20:37:09.797Z,8.90
2023-03-13T20:40:14.777Z,9.70
2023-03-13T20:43:17.153Z,12.10
2023-03-13T20:46:28.912Z,8.90
2023-03-13T20:49:29.936Z,8.00
2023-03-13T20:52:33.976Z,9.70
2023-03-13T20:55:36.821Z,9.00
2023-03-13T20:58:38.817Z,8.60
2023-03-13T21:01:38.969Z,8.80
2023-03-13T21:04:39.977Z,8.10
2023-03-13T21:07:39.850Z,10.00
2023-03-13T21:10:46.579Z,6.40
2023-03-13T21:13:46.926Z,6.50
2023-03-13T21:16:54.138Z,9.80
2023-03-13T21:19:55.916Z,7.70
2023-03-13T21:22:57.061Z,11.80
2023-03-13T21:25:57.153Z,9.10
2023-03-13T21:28:58.898Z,9.50
2023-03-13T21:32:06.008Z,7.90
2023-03-13T21:35:05.899Z,7.10
2023-03-13T21:38:10.090Z,7.80
2023-03-13T21:41:10.030Z,7.60
2023-03-13T21:44:11.938Z,9.90
2023-03-13T21:47:15.275Z,8.40
2023-03-13T21:50:23.022Z,8.40
2023-03-13T21:53:25.339Z,9.10
2023-03-13T21:56:26.916Z,7.30
2023-03-13T21:59:35.921Z,8.00
2023-03-13T22:02:35.902Z,10.60
2023-03-13T22:05:36.928Z,7.50
2023-03-13T22:08:39.056Z,9.10
2023-03-13T22:11:40.918Z,9.00
2023-03-13T22:14:44.165Z,7.60
2023-03-13T22:17:44.305Z,9.50
2023-03-13T22:20:48.384Z,7.00
2023-03-13T22:23:51.014Z,6.90
2023-03-13T22:26:53.020Z,7.60
2023-03-13T22:29:53.989Z,8.20
2023-03-13T22:32:55.076Z,8.80
2023-03-13T22:35:56.102Z,7.40
2023-03-13T22:38:56.088Z,8.60
2023-03-13T22:41:57.006Z,7.80
2023-03-13T22:44:56.999Z,7.80
2023-03-13T22:47:57.093Z,6.40
2023-03-13T22:51:00.008Z,6.60
2023-03-13T22:54:01.032Z,9.20
2023-03-13T22:57:02.037Z,9.00
2023-03-13T23:00:03.975Z,7.80
2023-03-13T23:03:04.999Z,6.10
2023-03-13T23:06:06.050Z,6.60
2023-03-13T23:09:06.079Z,7.20
2023-03-13T23:12:06.113Z,6.90
2023-03-13T23:15:12.053Z,6.80
2023-03-13T23:18:13.036Z,7.30
2023-03-13T23:21:23.032Z,9.40
2023-03-13T23:24:23.008Z,8.90
2023-03-13T23:27:26.088Z,8.00
2023-03-13T23:33:26.134Z,6.10
2023-03-13T23:36:29.187Z,8.20
2023-03-13T23:39:33.120Z,6.80
2023-03-13T23:42:38.719Z,6.60
2023-03-13T23:45:48.122Z,7.20
2023-03-13T23:48:50.114Z,7.70
2023-03-13T23:51:52.128Z,7.00
2023-03-13T23:54:53.134Z,6.10
2023-03-13T23:57:54.226Z,7.30
